Flight Track Log - Related Links

Times and Time Zones

All times are in EDT time to prevent confusion due to time zone crossing. See the SWA2975 flight status page for this flight to view local times or setup timezone preferences in your user account.

Time Position Orientation Groundspeed Altitude Reporting Facility
EDT Latitude Longitude Course Direction KTS MPH feet Rate Location/Type
Wed 10:48:59 PM 41.8010 -87.7720 332° Northwest 175 201 1,600  Level FlightAware ADS-B
Wed 10:49:07 PM 41.8090 -87.7740 349° North 183 211 1,900 1,286 Climbing FlightAware ADS-B
Wed 10:49:41 PM 41.8330 -87.7470 40° Northeast 247 284 2,500 1,149 Climbing FlightAware ADS-B
Wed 10:49:54 PM 41.8350 -87.7260 83° East 274 315 2,800 828 Climbing FlightAware ADS-B
Wed 10:50:10 PM 41.8360 -87.6970 87° East 287 330 2,900 973 Climbing FlightAware ADS-B
Wed 10:50:31 PM 41.8380 -87.6610 86° East 272 313 3,400 1,455 Climbing FlightAware ADS-B
Wed 10:50:43 PM 41.8390 -87.6410 86° East 272 313 3,700 732 Climbing FlightAware ADS-B
Wed 10:51:12 PM 41.8430 -87.5930 84° East 271 312 3,900 508 Climbing FlightAware ADS-B
Wed 10:51:42 PM 41.8460 -87.5410 86° East 274 315 4,200 1,970 Climbing FlightAware ADS-B
Wed 10:52:19 PM 41.8410 -87.4800 96° East 278 320 6,100 3,364 Climbing FlightAware ADS-B
Wed 10:52:48 PM 41.8320 -87.4310 104° East 281 323 7,900 3,467 Climbing FlightAware ADS-B
Wed 10:53:04 PM 41.8260 -87.4020 106° East 293 337 8,700 3,158 Climbing FlightAware ADS-B
Wed 10:53:45 PM 41.8130 -87.3300 104° East 304 350 10,900 3,106 Climbing FlightAware ADS-B
Wed 10:54:29 PM 41.7970 -87.2470 104° East 317 365 13,100 2,372 Climbing FlightAware ADS-B
Wed 10:55:11 PM 41.7800 -87.1600 105° East 360 414 14,300 2,203 Climbing FlightAware ADS-B
Wed 10:55:48 PM 41.7660 -87.0800 103° East 374 430 16,000 2,634 Climbing FlightAware ADS-B
Wed 10:56:33 PM 41.7630 -86.9720 92° East 392 451 17,900 2,552 Climbing FlightAware ADS-B
Wed 10:57:15 PM 41.7640 -86.8700 89° East 400 460 19,700 2,345 Climbing FlightAware ADS-B
Wed 10:58:00 PM 41.7650 -86.7620 89° East 411 473 21,300 2,214 Climbing FlightAware ADS-B
Wed 10:58:39 PM 41.7660 -86.6560 89° East 419 482 22,800 1,920 Climbing FlightAware ADS-B
Wed 10:59:15 PM 41.7670 -86.5630 89° East 436 502 23,700 1,333 Climbing FlightAware ADS-B
Wed 11:00:00 PM 41.7680 -86.4430 89° East 455 524 24,600 1,341 Climbing FlightAware ADS-B
Wed 11:00:40 PM 41.7700 -86.3280 89° East 473 544 25,600 1,658 Climbing FlightAware ADS-B
Wed 11:01:16 PM 41.7850 -86.2210 79° East 488 562 26,700 1,714 Climbing FlightAware ADS-B
Wed 11:01:57 PM 41.8060 -86.1010 77° East 494 568 27,800 1,519 Climbing FlightAware ADS-B
Wed 11:02:35 PM 41.8260 -85.9830 77° East 500 575 28,700 1,481 Climbing FlightAware ADS-B
Wed 11:03:18 PM 41.8480 -85.8540 77° East 506 582 29,800 1,553 Climbing FlightAware ADS-B
Wed 11:04:00 PM 41.8690 -85.7280 77° East 505 581 30,900 1,952 Climbing FlightAware ADS-B
Wed 11:04:41 PM 41.8900 -85.6040 77° East 488 562 32,500 1,432 Climbing FlightAware ADS-B
Wed 11:05:28 PM 41.9120 -85.4670 78° East 485 558 33,000 337 Climbing FlightAware ADS-B
Wed 11:06:10 PM 41.9330 -85.3410 77° East 486 559 33,000  Level FlightAware ADS-B
Wed 11:06:46 PM 41.9480 -85.2380 79° East 480 552 33,000  Level FlightAware ADS-B
Wed 11:07:41 PM 41.9510 -85.0710 89° East 468 539 33,000  Level FlightAware ADS-B
Wed 11:08:16 PM 41.9500 -84.9750 91° East 469 540 33,000 71 Level FlightAware ADS-B
Wed 11:09:05 PM 41.9500 -84.8280 90° East 473 544 33,100 659 Climbing FlightAware ADS-B
Wed 11:09:47 PM 41.9490 -84.7060 91° East 470 541 34,000 651 Climbing FlightAware ADS-B
Wed 11:10:28 PM 41.9480 -84.5940 91° East 469 540 34,000  Level FlightAware ADS-B
Wed 11:11:20 PM 41.9470 -84.4360 90° East 468 539 34,000  Level FlightAware ADS-B
Wed 11:12:02 PM 41.9460 -84.3180 91° East 467 537 34,000  Level FlightAware ADS-B
Wed 11:12:47 PM 41.9440 -84.1870 91° East 467 537 34,000 273 Level FlightAware ADS-B
Wed 11:13:30 PM 41.9430 -84.0630 91° East 470 541 34,400 714 Climbing FlightAware ADS-B
Wed 11:14:11 PM 41.9470 -83.9380 87° East 483 556 35,000 434 Climbing FlightAware ADS-B
Wed 11:14:53 PM 41.9630 -83.8130 80° East 485 558 35,000  Level FlightAware ADS-B
Wed 11:15:35 PM 41.9780 -83.6940 80° East 485 558 35,000  Level FlightAware ADS-B
Wed 11:16:17 PM 41.9930 -83.5690 81° East 486 559 35,000  Level FlightAware ADS-B
Wed 11:16:59 PM 42.0080 -83.4390 81° East 486 559 35,000  Level FlightAware ADS-B
Wed 11:17:41 PM 42.0230 -83.3130 81° East 487 560 35,000  Level FlightAware ADS-B
Wed 11:18:23 PM 42.0380 -83.1890 81° East 488 562 35,000  Level FlightAware ADS-B
Wed 11:19:05 PM 42.0530 -83.0630 81° East 489 563 35,000  Level FlightAware ADS-B
Wed 11:19:47 PM 42.0670 -82.9390 81° East 490 564 35,000  Level FlightAware ADS-B
Wed 11:20:31 PM 42.0820 -82.8050 81° East 490 564 35,000  Level FlightAware ADS-B
Wed 11:21:13 PM 42.0970 -82.6770 81° East 491 565 35,000  Level FlightAware ADS-B
Wed 11:21:49 PM 42.1090 -82.5680 82° East 491 565 35,000  Level FlightAware ADS-B
Wed 11:22:38 PM 42.1250 -82.4220 82° East 492 566 35,000  Level FlightAware ADS-B
Wed 11:23:18 PM 42.1390 -82.2990 81° East 493 567 35,000  Level FlightAware ADS-B
Wed 11:24:02 PM 42.1530 -82.1660 82° East 493 567 35,000  Level FlightAware ADS-B
Wed 11:24:50 PM 42.1660 -82.0480 82° East 493 567 35,000  Level FlightAware ADS-B
Wed 11:25:29 PM 42.1790 -81.9300 82° East 493 567 35,000  Level FlightAware ADS-B
Wed 11:26:06 PM 42.1910 -81.8140 82° East 491 565 35,000  Level FlightAware ADS-B
Wed 11:26:52 PM 42.2060 -81.6730 82° East 491 565 35,000  Level FlightAware ADS-B
Wed 11:27:28 PM 42.2160 -81.5700 82° East 490 564 35,000  Level FlightAware ADS-B
Wed 11:28:14 PM 42.2340 -81.4030 82° East 489 563 35,000  Level FlightAware ADS-B
Wed 11:28:53 PM 42.2450 -81.2870 83° East 488 562 35,000  Level FlightAware ADS-B
Wed 11:29:36 PM 42.2580 -81.1580 82° East 486 559 35,000  Level FlightAware ADS-B
Wed 11:30:18 PM 42.2510 -81.0340 94° East 471 542 35,000  Level FlightAware ADS-B
Wed 11:31:01 PM 42.2390 -80.9080 97° East 473 544 35,000  Level FlightAware ADS-B
Wed 11:31:43 PM 42.2260 -80.7830 98° East 471 542 35,000  Level FlightAware ADS-B
Wed 11:32:24 PM 42.2110 -80.6780 101° East 470 541 35,000  Level FlightAware ADS-B
Wed 11:33:04 PM 42.1950 -80.5640 101° East 471 542 35,000  Level FlightAware ADS-B
Wed 11:33:49 PM 42.1760 -80.4330 101° East 472 543 35,000  Level FlightAware ADS-B
Wed 11:34:29 PM 42.1590 -80.3180 101° East 474 545 35,000  Level FlightAware ADS-B
Wed 11:35:09 PM 42.1420 -80.2030 101° East 475 547 35,000  Level FlightAware ADS-B
Wed 11:35:54 PM 42.1190 -80.0710 103° East 472 543 35,000  Level FlightAware ADS-B
Wed 11:36:44 PM 42.0890 -79.9350 107° East 469 540 35,000  Level FlightAware ADS-B
Wed 11:37:19 PM 42.0670 -79.8410 107° East 469 540 35,000  Level FlightAware ADS-B
Wed 11:38:04 PM 42.0350 -79.7110 108° East 468 539 35,000  Level FlightAware ADS-B
Wed 11:38:49 PM 42.0050 -79.5850 108° East 470 541 35,000  Level FlightAware ADS-B
Wed 11:39:24 PM 41.9920 -79.4870 100° East 488 562 35,000  Level FlightAware ADS-B
Wed 11:40:14 PM 42.0090 -79.3310 82° East 498 573 35,000  Level FlightAware ADS-B
Wed 11:40:49 PM 42.0240 -79.2260 79° East 498 573 35,000  Level FlightAware ADS-B
Wed 11:41:39 PM 42.0490 -79.0750 77° East 498 573 35,000  Level FlightAware ADS-B
Wed 11:42:24 PM 42.0710 -78.9380 78° East 497 572 35,000  Level FlightAware ADS-B
Wed 11:43:04 PM 42.0890 -78.8180 79° East 498 573 35,000  Level FlightAware ADS-B
Wed 11:43:49 PM 42.1100 -78.6820 78° East 498 573 35,000  Level FlightAware ADS-B
Wed 11:44:29 PM 42.1280 -78.5600 79° East 500 575 35,000  Level FlightAware ADS-B
Wed 11:45:14 PM 42.1490 -78.4240 78° East 500 575 35,000  Level FlightAware ADS-B
Wed 11:45:54 PM 42.1670 -78.3040 79° East 495 570 35,000  Level FlightAware ADS-B
Wed 11:46:29 PM 42.1830 -78.1980 78° East 495 570 35,000  Level FlightAware ADS-B
Wed 11:47:09 PM 42.2010 -78.0760 79° East 494 568 35,000  Level FlightAware ADS-B
Wed 11:47:54 PM 42.2200 -77.9430 79° East 495 570 35,000  Level FlightAware ADS-B
Wed 11:48:44 PM 42.2420 -77.7910 79° East 494 568 35,000  Level FlightAware ADS-B
Wed 11:49:24 PM 42.2600 -77.6690 79° East 493 567 35,000  Level FlightAware ADS-B
Wed 11:50:09 PM 42.2800 -77.5330 79° East 493 567 35,000  Level FlightAware ADS-B
Wed 11:50:49 PM 42.2970 -77.4120 79° East 493 567 35,000  Level FlightAware ADS-B
Wed 11:51:29 PM 42.3140 -77.2910 79° East 494 568 35,000 -565 Level FlightAware ADS-B
Wed 11:52:14 PM 42.3330 -77.1560 79° East 492 566 34,200 -1,553 Descending FlightAware ADS-B
Wed 11:52:54 PM 42.3490 -77.0360 80° East 485 558 32,800 -2,000 Descending FlightAware ADS-B
Wed 11:53:29 PM 42.3630 -76.9370 79° East 480 552 31,700 -2,080 Descending FlightAware ADS-B
Wed 11:54:09 PM 42.3790 -76.8170 80° East 472 543 30,200 -1,906 Descending FlightAware ADS-B
Wed 11:54:54 PM 42.3970 -76.6860 79° East 458 527 29,000 -900 Descending FlightAware ADS-B
Wed 11:55:29 PM 42.4100 -76.5920 79° East 451 519 29,000  Level FlightAware ADS-B
Wed 11:56:09 PM 42.4240 -76.4800 80° East 451 519 29,000  Level FlightAware ADS-B
Wed 11:56:54 PM 42.4410 -76.3590 79° East 449 517 29,000  Level FlightAware ADS-B
Wed 11:57:29 PM 42.4540 -76.2580 80° East 461 531 29,000  Level FlightAware ADS-B
Wed 11:58:14 PM 42.4710 -76.1260 80° East 474 545 29,000  Level FlightAware ADS-B
Wed 11:58:59 PM 42.4880 -75.9950 80° East 473 544 29,000 -67 Level FlightAware ADS-B
Wed 11:59:44 PM 42.5050 -75.8640 80° East 475 547 28,900 -847 Descending FlightAware ADS-B
Thu 12:00:24 AM 42.5180 -75.7620 80° East 466 536 27,800 -1,920 Descending FlightAware ADS-B
Thu 12:00:59 AM 42.5320 -75.6510 80° East 457 526 26,500 -2,118 Descending FlightAware ADS-B
Thu 12:01:49 AM 42.5500 -75.5000 81° East 443 510 24,800 -1,977 Descending FlightAware ADS-B
Thu 12:02:27 AM 42.5630 -75.3960 80° East 436 502 23,600 -1,902 Descending FlightAware ADS-B
Thu 12:03:11 AM 42.5780 -75.2780 80° East 425 489 22,200 -1,884 Descending FlightAware ADS-B
Thu 12:03:53 AM 42.5910 -75.1700 81° East 418 481 20,900 -1,786 Descending FlightAware ADS-B
Thu 12:04:35 AM 42.6040 -75.0620 81° East 407 468 19,700 -1,744 Descending FlightAware ADS-B
Thu 12:05:19 AM 42.6160 -74.9550 81° East 399 459 18,400 -1,744 Descending FlightAware ADS-B
Thu 12:06:01 AM 42.6290 -74.8520 80° East 385 443 17,200 -1,756 Descending FlightAware ADS-B
Thu 12:06:41 AM 42.6390 -74.7610 81° East 377 434 16,000 -1,184 Descending FlightAware ADS-B
Thu 12:07:17 AM 42.6490 -74.6830 80° East 376 433 15,700 -250 Descending FlightAware ADS-B
Thu 12:07:53 AM 42.6580 -74.6120 80° East 376 433 15,700  Level FlightAware ADS-B
Thu 12:08:41 AM 42.6710 -74.5160 80° East 376 433 15,700  Level FlightAware ADS-B
Thu 12:09:18 AM 42.6800 -74.4430 80° East 376 433 15,700  Level FlightAware ADS-B
Thu 12:09:52 AM 42.6890 -74.3760 80° East 376 433 15,700  Level FlightAware ADS-B
Thu 12:10:40 AM 42.7010 -74.2810 80° East 376 433 15,700 -5,250 Level FlightAware ADS-B
Thu 12:11:20 AM 42.7083 -74.1581 80° East 316 364 8,000 -5,580 Descending Boston Center
Thu 12:12:20 AM 42.7553 -74.0886 47° Northeast 278 320 6,400 -1,650 Descending Boston Center
Thu 12:13:20 AM 42.8186 -74.0281 35° Northeast 272 313 4,700 -1,800 Descending Boston Center
Thu 12:14:20 AM 42.8781 -73.9558 42° Northeast 273 314 2,800 -1,100 Descending Boston Center
Thu 12:15:20 AM 42.8981 -73.8600 74° East 240 276 2,500 -200 Descending Boston Center
Thu 12:16:20 AM 42.8672 -73.8111 131° Southeast 175 201 2,400 -579 Descending Boston Center
Thu 12:17:45 AM 42.8028 -73.8125 181° South 138 159 1,100 -828 Descending Boston Center
Thu 12:18:45 AM 42.7631 -73.8089 176° South 140 161 400 -700 Descending Boston Center
Thu 12:22:00 AM 42.7491 -73.8020 150° Southeast  Level Estimated

Login

Don't have an account? Register now (free) for customized features, flight alerts, and more!